Time;durP1;ratioP1;P1;durP2;ratioP2;P2;SDS_P1;SDS_P2;PMS_P1;PMS_P2;Temp;Humidity;BMP_temperature;BMP_pressure;BME280_temperature;BME280_humidity;BME280_pressure;Samples;Min_cycle;Max_cycle;Signal;HPM_P1;HPM_P2
2022/10/25 00:01:48;;;;;;;10.40;2.08;;;12.00;99.90;;;;;;5030445;28;20033;-66
2022/10/25 00:04:14;;;;;;;9.88;1.83;;;12.00;99.90;;;;;;5028690;28;20040;-66
2022/10/25 00:06:40;;;;;;;7.85;2.22;;;12.10;99.90;;;;;;5027532;28;20025;-66
2022/10/25 00:09:06;;;;;;;13.27;1.85;;;12.10;99.90;;;;;;5031003;28;20034;-68
2022/10/25 00:11:32;;;;;;;8.35;1.95;;;12.20;99.90;;;;;;5026972;28;20022;-66
2022/10/25 00:14:00;;;;;;;6.60;1.80;;;12.20;99.90;;;;;;5025971;28;20100;-65
2022/10/25 00:16:29;;;;;;;8.65;1.35;;;12.10;99.90;;;;;;5028164;28;20023;-67
2022/10/25 00:18:55;;;;;;;2.95;1.23;;;12.10;99.90;;;;;;5028080;28;20034;-67
2022/10/25 00:21:21;;;;;;;6.53;2.15;;;12.00;99.90;;;;;;5031510;28;20021;-66
2022/10/25 00:23:47;;;;;;;5.13;1.80;;;11.90;99.90;;;;;;5011120;28;20072;-66
2022/10/25 00:26:13;;;;;;;5.63;2.10;;;11.80;99.90;;;;;;5029844;28;20052;-67
2022/10/25 00:28:39;;;;;;;9.40;1.70;;;11.70;99.90;;;;;;5021943;28;20026;-67
2022/10/25 00:31:08;;;;;;;9.95;1.88;;;11.70;99.90;;;;;;5038300;23;20412;-64
2022/10/25 00:33:35;;;;;;;10.38;2.28;;;11.70;99.90;;;;;;5026416;28;20018;-62
2022/10/25 00:36:05;;;;;;;7.07;2.00;;;11.70;99.90;;;;;;5028848;28;20033;-62
2022/10/25 00:38:31;;;;;;;3.00;1.35;;;11.70;99.90;;;;;;5024141;28;20037;-62
2022/10/25 00:40:56;;;;;;;6.40;1.58;;;11.80;99.90;;;;;;5031412;28;20075;-63
2022/10/25 00:43:35;;;;;;;11.82;1.80;;;11.80;99.90;;;;;;5019501;28;20040;-65
2022/10/25 00:46:05;;;;;;;7.93;1.55;;;11.90;99.90;;;;;;5042637;28;20566;-63
2022/10/25 00:48:32;;;;;;;8.75;1.77;;;11.90;99.90;;;;;;5033802;28;20112;-63
2022/10/25 00:50:57;;;;;;;6.93;1.77;;;11.90;99.90;;;;;;5033820;28;20032;-62
2022/10/25 00:53:27;;;;;;;9.57;1.17;;;11.80;99.90;;;;;;5033919;28;20025;-63
2022/10/25 00:55:59;;;;;;;10.10;1.90;;;11.80;99.90;;;;;;5033037;28;20025;-63
2022/10/25 00:58:27;;;;;;;4.18;1.23;;;11.80;99.90;;;;;;5015762;28;20080;-63
2022/10/25 01:00:53;;;;;;;11.65;2.13;;;11.80;99.90;;;;;;5035233;28;20029;-62
2022/10/25 01:03:22;;;;;;;9.02;1.75;;;11.70;99.90;;;;;;5040455;28;20080;-62
2022/10/25 01:05:48;;;;;;;7.10;1.27;;;11.70;99.90;;;;;;5036935;28;20120;-63
2022/10/25 01:08:16;;;;;;;6.85;1.33;;;11.70;99.90;;;;;;5037252;28;20029;-63
2022/10/25 01:10:42;;;;;;;13.05;1.80;;;11.70;99.90;;;;;;5030992;28;20087;-62
2022/10/25 01:13:07;;;;;;;3.58;1.75;;;11.70;99.90;;;;;;5023083;28;20025;-63
2022/10/25 01:15:58;;;;;;;8.88;1.67;;;11.70;99.90;;;;;;5035535;28;20025;-62
2022/10/25 01:18:53;;;;;;;7.07;1.20;;;11.70;99.90;;;;;;5041605;28;20045;-62
2022/10/25 01:21:38;;;;;;;8.07;1.40;;;11.80;99.90;;;;;;5031277;28;20040;-62
2022/10/25 01:24:41;;;;;;;7.25;1.15;;;11.90;99.90;;;;;;5032381;28;20032;-61
2022/10/25 01:27:47;;;;;;;5.70;1.42;;;12.00;99.90;;;;;;5033158;28;20032;-63
2022/10/25 01:30:21;;;;;;;10.15;2.25;;;12.10;99.90;;;;;;5034291;28;20022;-63
2022/10/25 01:33:32;;;;;;;6.97;1.67;;;12.10;99.90;;;;;;5031424;28;20738;-63
2022/10/25 01:36:08;;;;;;;10.98;1.23;;;12.20;99.90;;;;;;5034142;28;20115;-62
2022/10/25 01:38:52;;;;;;;5.15;1.63;;;12.20;99.90;;;;;;5033541;28;20439;-62
2022/10/25 01:41:58;;;;;;;6.35;1.38;;;12.20;99.90;;;;;;5028913;28;20048;-62
2022/10/25 01:44:37;;;;;;;4.40;1.60;;;12.20;99.90;;;;;;5028119;28;20453;-68
2022/10/25 01:47:10;;;;;;;3.33;1.48;;;12.30;99.90;;;;;;5038902;28;20025;-63
2022/10/25 01:49:41;;;;;;;10.07;1.80;;;12.30;99.90;;;;;;5032016;28;20040;-63
2022/10/25 01:52:06;;;;;;;3.30;1.40;;;12.30;99.90;;;;;;5031633;28;20496;-62
2022/10/25 01:54:32;;;;;;;7.60;1.70;;;12.30;99.90;;;;;;5011398;28;20044;-62
2022/10/25 01:57:19;;;;;;;5.22;1.67;;;12.40;99.90;;;;;;5033726;28;20036;-62
2022/10/25 02:00:01;;;;;;;7.72;1.52;;;12.40;99.90;;;;;;5026337;28;20026;-63
2022/10/25 02:02:36;;;;;;;8.27;1.73;;;12.40;99.90;;;;;;5036494;28;20113;-62
2022/10/25 02:05:10;;;;;;;4.50;2.03;;;12.40;99.90;;;;;;5036557;28;20026;-63
2022/10/25 02:07:50;;;;;;;7.07;1.67;;;12.50;99.90;;;;;;5031566;28;20021;-63
2022/10/25 02:10:22;;;;;;;8.30;1.85;;;12.50;99.90;;;;;;5029714;28;20032;-62
2022/10/25 02:12:57;;;;;;;6.35;1.13;;;12.50;99.90;;;;;;5042427;28;20025;-63
2022/10/25 02:15:37;;;;;;;3.28;1.30;;;12.50;99.90;;;;;;5039405;28;20025;-64
2022/10/25 02:18:13;;;;;;;7.43;1.60;;;12.50;99.90;;;;;;5039131;28;20017;-62
2022/10/25 02:20:40;;;;;;;5.93;2.13;;;12.50;99.90;;;;;;5025702;28;20041;-62
2022/10/25 02:23:06;;;;;;;6.75;1.88;;;12.50;99.90;;;;;;5034821;28;20083;-62
2022/10/25 02:25:33;;;;;;;4.70;2.00;;;12.50;99.90;;;;;;5042713;28;20029;-63
2022/10/25 02:28:02;;;;;;;16.55;2.10;;;12.50;99.90;;;;;;5030392;28;20025;-62
2022/10/25 02:30:30;;;;;;;3.20;1.30;;;12.50;99.90;;;;;;5039839;28;20045;-63
2022/10/25 02:32:56;;;;;;;9.77;1.60;;;12.50;99.90;;;;;;5038883;28;20037;-62
2022/10/25 02:35:22;;;;;;;12.52;2.08;;;12.50;99.90;;;;;;5032612;28;20083;-63
2022/10/25 02:37:47;;;;;;;7.43;1.70;;;12.50;99.90;;;;;;5038623;28;20068;-63
2022/10/25 02:40:13;;;;;;;7.38;1.52;;;12.50;99.90;;;;;;5036296;28;20083;-62
2022/10/25 02:42:39;;;;;;;3.90;1.35;;;12.50;99.90;;;;;;5033533;28;20090;-63
2022/10/25 02:45:05;;;;;;;4.55;1.30;;;12.50;99.90;;;;;;5035064;28;20029;-63
2022/10/25 02:47:31;;;;;;;2.80;1.50;;;12.50;99.90;;;;;;5028069;28;20029;-63
2022/10/25 02:49:57;;;;;;;5.93;1.58;;;12.50;99.90;;;;;;5039129;28;20086;-63
2022/10/25 02:52:22;;;;;;;7.90;1.27;;;12.50;99.90;;;;;;5026919;28;20040;-64
2022/10/25 02:54:48;;;;;;;5.72;1.30;;;12.50;99.90;;;;;;5028964;28;20033;-64
2022/10/25 02:57:13;;;;;;;10.70;1.83;;;12.40;99.90;;;;;;5030481;28;20061;-63
2022/10/25 02:59:39;;;;;;;3.08;1.83;;;12.30;99.90;;;;;;5044257;28;20021;-63
2022/10/25 03:02:04;;;;;;;3.80;1.45;;;12.30;99.90;;;;;;5043247;28;20392;-63
2022/10/25 03:04:30;;;;;;;4.03;1.50;;;12.40;99.90;;;;;;5046477;28;20116;-64
2022/10/25 03:06:56;;;;;;;6.47;1.27;;;12.30;99.90;;;;;;5030557;28;20037;-64
2022/10/25 03:09:22;;;;;;;6.25;1.30;;;12.30;99.90;;;;;;5039356;28;20061;-64
2022/10/25 03:11:48;;;;;;;11.40;1.58;;;12.30;99.90;;;;;;5042242;28;20043;-64
2022/10/25 03:14:14;;;;;;;4.07;1.88;;;12.30;99.90;;;;;;5028262;28;20104;-63
2022/10/25 03:16:40;;;;;;;3.25;1.15;;;12.20;99.90;;;;;;5030838;28;20172;-64
2022/10/25 03:19:05;;;;;;;11.80;1.48;;;12.20;99.90;;;;;;5040169;28;20537;-63
2022/10/25 03:21:31;;;;;;;7.75;1.48;;;12.20;99.90;;;;;;5033974;28;20068;-64
2022/10/25 03:23:57;;;;;;;8.07;1.08;;;12.20;99.90;;;;;;5031766;28;20029;-63
2022/10/25 03:26:22;;;;;;;4.90;1.60;;;12.30;99.90;;;;;;5032143;28;20112;-64
2022/10/25 03:28:48;;;;;;;1.88;1.10;;;12.30;99.90;;;;;;5030849;28;20041;-64
2022/10/25 03:31:16;;;;;;;11.90;1.42;;;12.30;99.90;;;;;;5029167;28;20037;-64
2022/10/25 03:33:42;;;;;;;6.95;1.50;;;12.30;99.90;;;;;;5027797;28;20184;-64
2022/10/25 03:36:08;;;;;;;5.22;2.55;;;12.40;99.90;;;;;;5029169;28;20025;-63
2022/10/25 03:38:33;;;;;;;2.38;1.08;;;12.40;99.90;;;;;;5011044;28;20440;-64
2022/10/25 03:40:59;;;;;;;9.65;1.48;;;12.40;99.90;;;;;;5028670;28;20063;-63
2022/10/25 03:43:25;;;;;;;4.93;1.30;;;12.40;99.90;;;;;;5027214;28;20032;-63
2022/10/25 03:45:50;;;;;;;3.78;1.60;;;12.50;99.90;;;;;;5028485;28;20384;-64
2022/10/25 03:48:16;;;;;;;9.85;2.05;;;12.50;99.90;;;;;;5028687;28;20029;-63
2022/10/25 03:50:42;;;;;;;3.00;1.08;;;12.50;99.90;;;;;;5027517;28;20753;-62
2022/10/25 03:53:08;;;;;;;2.67;1.20;;;12.50;99.90;;;;;;5032540;28;20037;-63
2022/10/25 03:55:34;;;;;;;9.57;1.25;;;12.60;99.90;;;;;;5029073;28;20021;-62
2022/10/25 03:58:00;;;;;;;3.88;1.52;;;12.60;99.90;;;;;;5029747;28;20447;-63
2022/10/25 04:00:26;;;;;;;10.32;1.30;;;12.60;99.90;;;;;;5031029;28;20035;-62
2022/10/25 04:02:56;;;;;;;2.58;1.38;;;12.60;99.90;;;;;;5036459;28;20481;-63
2022/10/25 04:05:21;;;;;;;9.45;2.67;;;12.60;99.90;;;;;;5030397;28;20052;-63
2022/10/25 04:07:47;;;;;;;3.72;1.13;;;12.60;99.90;;;;;;5033175;28;20516;-63
2022/10/25 04:10:13;;;;;;;7.10;2.03;;;12.70;99.90;;;;;;5027083;28;20025;-62
2022/10/25 04:12:38;;;;;;;8.02;1.67;;;12.70;99.90;;;;;;5030128;28;20482;-62
2022/10/25 04:15:04;;;;;;;9.20;1.88;;;12.70;99.90;;;;;;5028474;28;20036;-62
2022/10/25 04:17:30;;;;;;;4.00;1.25;;;12.70;99.90;;;;;;5010857;28;20026;-62
2022/10/25 04:19:55;;;;;;;9.20;1.73;;;12.70;99.90;;;;;;5027798;28;20025;-63
2022/10/25 04:22:21;;;;;;;7.05;1.50;;;12.70;99.90;;;;;;5030652;28;20100;-63
2022/10/25 04:24:47;;;;;;;5.35;1.25;;;12.70;99.90;;;;;;5029177;28;20036;-62
2022/10/25 04:27:12;;;;;;;10.13;1.52;;;12.70;99.90;;;;;;5027238;28;20623;-62
2022/10/25 04:29:38;;;;;;;10.93;1.75;;;12.70;99.90;;;;;;5030763;28;20028;-62
2022/10/25 04:32:04;;;;;;;6.13;1.42;;;12.60;99.90;;;;;;5028447;28;20029;-62
2022/10/25 04:34:30;;;;;;;6.22;1.80;;;12.60;99.90;;;;;;5026786;28;20030;-62
2022/10/25 04:36:55;;;;;;;3.70;1.60;;;12.60;99.90;;;;;;5035113;28;20028;-62
2022/10/25 04:39:21;;;;;;;9.07;1.55;;;12.60;99.90;;;;;;5035355;28;20025;-63
2022/10/25 04:41:47;;;;;;;6.88;1.30;;;12.60;99.90;;;;;;5034223;28;20026;-62
2022/10/25 04:44:12;;;;;;;5.65;1.30;;;12.60;99.90;;;;;;5029032;28;20025;-62
2022/10/25 04:46:38;;;;;;;7.60;1.50;;;12.60;99.90;;;;;;5029142;28;20030;-63
2022/10/25 04:49:03;;;;;;;5.80;1.60;;;12.60;99.90;;;;;;5029156;28;20061;-62
2022/10/25 04:51:29;;;;;;;4.05;1.42;;;12.60;99.90;;;;;;5028129;28;20045;-63
2022/10/25 04:53:55;;;;;;;6.97;1.25;;;12.60;99.90;;;;;;5029459;28;20018;-63
2022/10/25 04:56:21;;;;;;;8.13;1.83;;;12.70;99.90;;;;;;5031078;28;20021;-63
2022/10/25 04:58:46;;;;;;;5.53;1.30;;;12.70;99.90;;;;;;5030002;28;20027;-63
2022/10/25 05:01:15;;;;;;;6.47;1.30;;;12.70;99.90;;;;;;5035073;28;20029;-63
2022/10/25 05:03:41;;;;;;;16.35;1.77;;;12.70;99.90;;;;;;5025893;28;20028;-62
2022/10/25 05:06:14;;;;;;;3.10;1.20;;;12.70;99.90;;;;;;5027864;28;20030;-63
2022/10/25 05:08:41;;;;;;;13.63;1.70;;;12.80;99.90;;;;;;5022953;28;20033;-63
2022/10/25 05:11:08;;;;;;;3.10;1.25;;;12.80;99.90;;;;;;5034296;28;20017;-63
2022/10/25 05:13:35;;;;;;;5.82;1.60;;;12.90;99.90;;;;;;5040783;28;20013;-63
2022/10/25 05:16:02;;;;;;;4.03;1.20;;;12.90;99.90;;;;;;5036172;28;20392;-63
2022/10/25 05:18:30;;;;;;;4.55;2.13;;;12.90;99.90;;;;;;5024241;28;20120;-63
2022/10/25 05:20:58;;;;;;;6.00;1.42;;;12.80;99.90;;;;;;5029313;28;20485;-64
2022/10/25 05:23:25;;;;;;;6.13;1.52;;;12.80;99.90;;;;;;5028750;28;20567;-63
2022/10/25 05:26:05;;;;;;;7.97;1.50;;;12.80;99.90;;;;;;5037803;28;20072;-62
2022/10/25 05:28:33;;;;;;;12.25;1.65;;;12.80;99.90;;;;;;5027074;28;20036;-63
2022/10/25 05:31:06;;;;;;;4.90;1.30;;;12.70;99.90;;;;;;5022250;28;20880;-63
2022/10/25 05:33:32;;;;;;;9.95;2.08;;;12.70;99.90;;;;;;5031570;28;20593;-64
2022/10/25 05:36:02;;;;;;;6.60;1.40;;;12.70;99.90;;;;;;5032549;28;20036;-63
2022/10/25 05:38:28;;;;;;;5.50;1.27;;;12.60;99.90;;;;;;5040919;28;20111;-63
2022/10/25 05:40:59;;;;;;;9.52;1.52;;;12.60;99.90;;;;;;5040808;28;20029;-63
2022/10/25 05:43:25;;;;;;;10.00;1.77;;;12.60;99.90;;;;;;5033452;28;20075;-63
2022/10/25 05:45:59;;;;;;;5.70;1.45;;;12.50;99.90;;;;;;5032007;28;20025;-63
2022/10/25 05:48:24;;;;;;;9.85;1.90;;;12.40;99.90;;;;;;5031686;28;20476;-63
2022/10/25 05:50:50;;;;;;;4.05;1.45;;;12.30;99.90;;;;;;5039083;28;20156;-63
2022/10/25 05:53:15;;;;;;;10.85;2.33;;;12.20;99.90;;;;;;5032222;28;20057;-63
2022/10/25 05:55:41;;;;;;;8.82;1.90;;;12.20;99.90;;;;;;5029241;28;20032;-63
2022/10/25 05:58:07;;;;;;;5.32;1.67;;;12.10;99.90;;;;;;5031242;28;20515;-63
2022/10/25 06:00:33;;;;;;;6.35;1.77;;;12.10;99.90;;;;;;5029237;28;20033;-62
2022/10/25 06:03:02;;;;;;;8.32;1.92;;;12.00;99.90;;;;;;5024039;28;20043;-62
2022/10/25 06:05:27;;;;;;;6.55;1.88;;;12.00;99.90;;;;;;5033666;28;20521;-62
2022/10/25 06:07:53;;;;;;;2.97;1.50;;;11.90;99.90;;;;;;5029698;28;20048;-63
2022/10/25 06:10:19;;;;;;;5.93;1.90;;;11.90;99.90;;;;;;5030428;28;20049;-63
2022/10/25 06:12:44;;;;;;;6.03;1.83;;;11.80;99.90;;;;;;5031905;28;20033;-63
2022/10/25 06:15:10;;;;;;;7.25;1.48;;;11.70;99.90;;;;;;5032372;28;20040;-62
2022/10/25 06:17:35;;;;;;;7.28;2.05;;;11.70;99.90;;;;;;5037113;28;20021;-63
2022/10/25 06:20:01;;;;;;;9.90;2.25;;;11.70;99.90;;;;;;5038640;28;20021;-63
2022/10/25 06:22:27;;;;;;;4.47;1.77;;;11.70;99.90;;;;;;5013463;28;20025;-62
2022/10/25 06:24:52;;;;;;;5.15;1.65;;;11.60;99.90;;;;;;5031967;28;20382;-63
2022/10/25 06:27:18;;;;;;;5.80;2.13;;;11.60;99.90;;;;;;5027881;28;20160;-63
2022/10/25 06:29:43;;;;;;;6.88;1.98;;;11.50;99.90;;;;;;5031813;28;20112;-63
2022/10/25 06:32:09;;;;;;;10.77;2.00;;;11.50;99.90;;;;;;5029761;28;20104;-62
2022/10/25 06:34:34;;;;;;;13.80;1.80;;;11.40;99.90;;;;;;5038073;28;20092;-63
2022/10/25 06:37:00;;;;;;;6.15;1.83;;;11.40;99.90;;;;;;5029942;28;20132;-63
2022/10/25 06:39:25;;;;;;;4.05;1.70;;;11.40;99.90;;;;;;5039722;28;20485;-62
2022/10/25 06:41:51;;;;;;;10.00;2.08;;;11.40;99.90;;;;;;5030114;28;20112;-63
2022/10/25 06:44:16;;;;;;;5.93;2.00;;;11.40;99.90;;;;;;5039406;28;20151;-63
2022/10/25 06:46:42;;;;;;;7.03;1.58;;;11.50;99.90;;;;;;5022388;28;20032;-63
2022/10/25 06:49:09;;;;;;;5.88;2.13;;;11.60;99.90;;;;;;5036345;28;20025;-63
2022/10/25 06:51:35;;;;;;;5.00;2.35;;;11.60;99.90;;;;;;5044532;28;20035;-63
2022/10/25 06:54:04;;;;;;;11.50;3.05;;;11.80;99.90;;;;;;5041520;28;20022;-62
2022/10/25 06:56:30;;;;;;;7.40;2.65;;;11.80;99.90;;;;;;5039491;28;20489;-64
2022/10/25 06:58:57;;;;;;;5.93;1.92;;;11.90;99.90;;;;;;5043789;28;20049;-63
2022/10/25 07:01:24;;;;;;;11.73;2.05;;;12.00;99.90;;;;;;5002013;28;20064;-64
2022/10/25 07:03:52;;;;;;;3.60;1.77;;;12.10;99.90;;;;;;5030776;28;20464;-63
2022/10/25 07:06:24;;;;;;;5.53;1.50;;;12.20;99.90;;;;;;5039050;28;20381;-63
2022/10/25 07:08:57;;;;;;;4.75;1.50;;;12.30;99.90;;;;;;5009881;28;20030;-63
2022/10/25 07:11:24;;;;;;;12.15;2.88;;;12.40;99.90;;;;;;5025660;28;20024;-63
2022/10/25 07:13:50;;;;;;;7.60;2.05;;;12.50;99.90;;;;;;5039818;28;20158;-63
2022/10/25 07:16:18;;;;;;;5.80;2.33;;;12.60;99.90;;;;;;5029434;28;20022;-63
2022/10/25 07:18:44;;;;;;;6.47;2.10;;;12.60;99.90;;;;;;5030785;28;20036;-63
2022/10/25 07:21:16;;;;;;;8.52;2.08;;;12.70;99.90;;;;;;5021398;28;20038;-63
2022/10/25 07:23:42;;;;;;;9.57;2.50;;;12.70;99.90;;;;;;5024880;28;20642;-63
2022/10/25 07:26:17;;;;;;;7.43;1.88;;;12.70;99.90;;;;;;5038519;28;20029;-62
2022/10/25 07:28:44;;;;;;;6.63;1.70;;;12.80;99.90;;;;;;5027931;28;20037;-63
2022/10/25 07:31:16;;;;;;;3.95;1.92;;;12.90;99.90;;;;;;5026435;28;20033;-66
2022/10/25 07:33:41;;;;;;;11.60;1.83;;;13.00;99.90;;;;;;5030374;28;20388;-62
2022/10/25 07:36:07;;;;;;;5.97;1.70;;;13.10;99.90;;;;;;5024439;28;20025;-63
2022/10/25 07:38:33;;;;;;;4.93;1.80;;;13.20;99.90;;;;;;5020581;28;20110;-63
2022/10/25 07:40:59;;;;;;;9.23;1.45;;;13.30;99.90;;;;;;5010473;28;20508;-62
2022/10/25 07:43:25;;;;;;;12.18;1.85;;;13.40;99.90;;;;;;5005831;28;20080;-63
2022/10/25 07:45:52;;;;;;;7.70;1.58;;;13.50;99.90;;;;;;5028508;28;20493;-63
2022/10/25 07:48:17;;;;;;;4.53;2.00;;;13.60;99.90;;;;;;5030790;28;20432;-63
2022/10/25 07:50:43;;;;;;;6.40;2.10;;;13.70;99.90;;;;;;5030393;28;20029;-63
2022/10/25 07:53:09;;;;;;;6.95;1.80;;;13.70;99.90;;;;;;5019619;28;20032;-63
2022/10/25 07:55:34;;;;;;;4.78;1.90;;;13.80;99.90;;;;;;5027897;28;20488;-63
2022/10/25 07:58:04;;;;;;;4.00;2.03;;;13.80;99.90;;;;;;5027531;28;20136;-63
2022/10/25 08:00:30;;;;;;;7.65;1.67;;;13.90;99.90;;;;;;5018059;28;20025;-63
2022/10/25 08:02:55;;;;;;;4.43;1.60;;;14.00;99.90;;;;;;5029001;28;20030;-63
2022/10/25 08:05:21;;;;;;;8.95;1.50;;;14.10;99.90;;;;;;5041233;28;20090;-63
2022/10/25 08:07:48;;;;;;;8.43;1.67;;;14.30;99.90;;;;;;5027360;28;20032;-63
2022/10/25 08:10:14;;;;;;;6.38;1.23;;;14.30;99.90;;;;;;5027163;28;20022;-63
2022/10/25 08:12:40;;;;;;;5.03;1.80;;;14.40;99.90;;;;;;5032671;28;20021;-63
2022/10/25 08:15:06;;;;;;;4.10;1.20;;;14.40;99.90;;;;;;5015961;28;20036;-63
2022/10/25 08:17:31;;;;;;;2.70;1.33;;;14.40;99.90;;;;;;5011066;28;20060;-63
2022/10/25 08:19:57;;;;;;;6.57;2.08;;;14.40;99.90;;;;;;5035219;28;21837;-63
2022/10/25 08:22:22;;;;;;;8.20;1.65;;;14.50;99.90;;;;;;5038649;28;20029;-63
2022/10/25 08:24:48;;;;;;;8.15;1.60;;;14.60;99.90;;;;;;5038103;28;20417;-63
2022/10/25 08:27:14;;;;;;;2.58;1.20;;;14.60;99.90;;;;;;5044535;28;20052;-63
2022/10/25 08:29:39;;;;;;;6.63;1.73;;;14.70;99.90;;;;;;5036309;28;20025;-63
2022/10/25 08:32:05;;;;;;;8.50;1.95;;;14.70;99.90;;;;;;5017387;28;20757;-63
2022/10/25 08:34:30;;;;;;;6.40;1.88;;;14.90;99.90;;;;;;5001688;28;20025;-64
2022/10/25 08:36:56;;;;;;;7.13;1.70;;;15.00;99.90;;;;;;5019930;28;20029;-63
2022/10/25 08:39:21;;;;;;;8.98;2.38;;;15.30;99.90;;;;;;5012994;28;20108;-63
2022/10/25 08:41:52;;;;;;;8.88;1.67;;;15.30;99.90;;;;;;5028653;28;20042;-63
2022/10/25 08:44:35;;;;;;;6.25;1.85;;;15.40;99.90;;;;;;5029290;28;20137;-63
2022/10/25 08:47:18;;;;;;;6.32;2.10;;;15.40;99.90;;;;;;5027753;28;20021;-63
2022/10/25 08:50:11;;;;;;;7.13;2.40;;;15.40;99.90;;;;;;5019514;28;20033;-63
2022/10/25 08:52:43;;;;;;;7.75;1.90;;;15.60;99.90;;;;;;5030453;28;20121;-63
2022/10/25 08:55:21;;;;;;;5.65;1.65;;;15.60;99.90;;;;;;5031845;28;20458;-63
2022/10/25 08:57:50;;;;;;;10.50;1.80;;;15.70;99.90;;;;;;5021202;28;20044;-63
2022/10/25 09:00:21;;;;;;;3.33;1.63;;;15.80;99.90;;;;;;5021756;28;20500;-63
2022/10/25 09:02:55;;;;;;;2.28;1.20;;;15.80;99.90;;;;;;5013770;28;20060;-64
2022/10/25 09:05:38;;;;;;;6.18;1.45;;;16.00;99.90;;;;;;5039140;28;20121;-64
2022/10/25 09:08:32;;;;;;;5.68;1.65;;;16.20;99.90;;;;;;5035398;28;20664;-64
2022/10/25 09:11:32;;;;;;;7.30;1.55;;;16.10;99.90;;;;;;5023823;28;20037;-63
2022/10/25 09:14:32;;;;;;;12.23;2.33;;;16.30;99.90;;;;;;5007657;28;20025;-64
2022/10/25 09:17:22;;;;;;;6.20;1.63;;;16.30;99.90;;;;;;5030294;28;20449;-63
2022/10/25 09:20:26;;;;;;;6.18;1.20;;;16.50;99.90;;;;;;5032586;28;20032;-64
2022/10/25 09:23:21;;;;;;;12.05;1.67;;;16.40;99.90;;;;;;5030678;28;20048;-63
2022/10/25 09:26:14;;;;;;;5.20;1.48;;;16.30;99.90;;;;;;5035813;28;20037;-63
2022/10/25 09:28:50;;;;;;;7.80;1.55;;;16.40;99.90;;;;;;5025899;28;20569;-63
2022/10/25 09:31:21;;;;;;;5.93;1.10;;;16.50;99.90;;;;;;5027730;28;20029;-64
2022/10/25 09:33:51;;;;;;;8.25;1.67;;;16.60;99.90;;;;;;5030242;28;20684;-64
2022/10/25 09:36:17;;;;;;;6.70;1.90;;;16.80;99.90;;;;;;5030847;28;20030;-64
2022/10/25 09:39:05;;;;;;;6.32;1.15;;;17.10;99.90;;;;;;5030641;28;20511;-64
2022/10/25 09:41:39;;;;;;;5.03;1.30;;;17.20;99.90;;;;;;5027659;28;20170;-64
2022/10/25 09:44:40;;;;;;;6.32;1.13;;;17.00;99.90;;;;;;5024898;28;20236;-63
2022/10/25 09:47:41;;;;;;;7.40;1.15;;;17.00;99.90;;;;;;5009857;28;20389;-63
2022/10/25 09:50:17;;;;;;;6.28;1.23;;;17.20;99.90;;;;;;5020331;28;20477;-64
2022/10/25 09:53:12;;;;;;;11.30;1.10;;;17.00;99.90;;;;;;5034605;28;20079;-63
2022/10/25 09:55:58;;;;;;;7.22;1.08;;;17.00;99.90;;;;;;5026768;28;20075;-63
2022/10/25 09:58:37;;;;;;;2.85;0.70;;;16.80;99.90;;;;;;5030048;28;20032;-63
2022/10/25 10:01:06;;;;;;;2.60;0.70;;;16.60;99.90;;;;;;5020361;28;20057;-63
2022/10/25 10:03:34;;;;;;;4.75;1.13;;;16.70;99.90;;;;;;5020295;28;20087;-64
2022/10/25 10:06:37;;;;;;;3.75;1.08;;;16.60;99.90;;;;;;5024967;28;20056;-64
2022/10/25 10:09:06;;;;;;;2.50;1.00;;;16.50;99.90;;;;;;5021111;28;20033;-65
2022/10/25 10:11:34;;;;;;;4.43;1.02;;;16.60;99.90;;;;;;5022528;28;20014;-63
2022/10/25 10:14:17;;;;;;;4.75;0.98;;;16.60;99.90;;;;;;5027205;28;20057;-64
2022/10/25 10:16:52;;;;;;;10.70;1.25;;;16.50;99.90;;;;;;5019324;28;20034;-64
2022/10/25 10:19:22;;;;;;;7.18;1.10;;;16.40;99.90;;;;;;5024229;28;20048;-63
2022/10/25 10:22:06;;;;;;;2.25;0.80;;;16.20;99.90;;;;;;5024588;28;20030;-64
2022/10/25 10:24:34;;;;;;;4.78;1.60;;;16.20;99.90;;;;;;5022382;28;20033;-64
2022/10/25 10:27:22;;;;;;;4.07;1.10;;;16.20;99.90;;;;;;5021545;28;20040;-64
2022/10/25 10:30:20;;;;;;;1.88;0.93;;;16.10;99.90;;;;;;5025080;28;20451;-63
2022/10/25 10:32:46;;;;;;;8.50;1.65;;;16.30;99.90;;;;;;5012845;28;20049;-64
2022/10/25 10:35:34;;;;;;;2.00;0.70;;;16.60;99.90;;;;;;5009540;28;20084;-63
2022/10/25 10:38:26;;;;;;;2.53;0.98;;;16.80;99.90;;;;;;5022386;28;20065;-64
2022/10/25 10:41:14;;;;;;;3.15;0.80;;;17.00;99.90;;;;;;5026523;28;20400;-64
2022/10/25 10:43:40;;;;;;;4.35;0.90;;;17.40;99.90;;;;;;5020938;28;20032;-63
2022/10/25 10:46:13;;;;;;;3.95;0.88;;;17.70;99.90;;;;;;5023007;28;20079;-64
2022/10/25 10:48:43;;;;;;;2.85;1.05;;;18.00;99.90;;;;;;5026005;28;21329;-64
2022/10/25 10:51:14;;;;;;;5.15;0.90;;;17.80;99.90;;;;;;5025510;28;20032;-64
2022/10/25 10:53:39;;;;;;;11.05;1.50;;;17.70;99.90;;;;;;5038002;28;20053;-64
2022/10/25 10:56:06;;;;;;;3.63;0.98;;;17.60;99.90;;;;;;5032075;28;20052;-63
2022/10/25 10:58:36;;;;;;;4.88;1.00;;;17.40;99.90;;;;;;5025135;28;20970;-63
2022/10/25 11:01:11;;;;;;;2.70;1.05;;;17.20;99.90;;;;;;5012620;28;20104;-64
2022/10/25 11:03:40;;;;;;;4.50;1.00;;;17.20;99.90;;;;;;5042729;28;20048;-64
2022/10/25 11:06:14;;;;;;;4.93;1.00;;;17.30;99.90;;;;;;5033070;28;20029;-63
2022/10/25 11:08:41;;;;;;;3.75;0.93;;;17.50;99.90;;;;;;5028696;28;20095;-64
2022/10/25 11:11:13;;;;;;;6.28;1.52;;;17.50;99.90;;;;;;5030263;28;20065;-64
2022/10/25 11:13:38;;;;;;;9.27;1.15;;;17.60;99.90;;;;;;5037829;28;20043;-64
2022/10/25 11:16:33;;;;;;;4.68;1.10;;;17.80;99.90;;;;;;5035315;28;20487;-63
2022/10/25 11:19:23;;;;;;;3.85;0.85;;;17.90;99.90;;;;;;5021052;28;20047;-64
2022/10/25 11:22:08;;;;;;;6.50;1.40;;;17.90;99.90;;;;;;5043854;28;20111;-64
2022/10/25 11:24:52;;;;;;;2.17;0.73;;;17.60;99.90;;;;;;5038716;28;20505;-64
2022/10/25 11:27:51;;;;;;;5.53;0.60;;;17.40;99.90;;;;;;5026615;28;20033;-63
2022/10/25 11:30:20;;;;;;;6.63;1.00;;;17.30;99.90;;;;;;4999291;28;20025;-64
2022/10/25 11:33:09;;;;;;;3.17;0.88;;;17.40;99.90;;;;;;5012559;28;20546;-64
2022/10/25 11:36:07;;;;;;;4.32;0.82;;;17.40;99.90;;;;;;5029683;28;20080;-63
2022/10/25 11:38:37;;;;;;;2.05;0.57;;;17.50;99.90;;;;;;5026762;28;20539;-63
2022/10/25 11:41:26;;;;;;;3.58;1.15;;;17.50;99.90;;;;;;5036448;28;20451;-64
2022/10/25 11:43:54;;;;;;;7.85;1.20;;;17.50;99.90;;;;;;5024924;28;20036;-64
2022/10/25 11:46:57;;;;;;;1.55;0.63;;;17.50;99.90;;;;;;5038888;28;20151;-64
2022/10/25 11:50:01;;;;;;;4.47;0.88;;;17.60;99.90;;;;;;5038865;28;20033;-63
2022/10/25 11:52:54;;;;;;;1.20;0.45;;;17.50;99.90;;;;;;5025361;28;20068;-64
2022/10/25 11:55:37;;;;;;;4.40;0.85;;;17.50;99.90;;;;;;5024048;28;20018;-64
2022/10/25 11:58:21;;;;;;;5.10;1.13;;;17.60;99.90;;;;;;5026424;28;20038;-63
2022/10/25 12:01:01;;;;;;;5.38;1.40;;;17.70;99.90;;;;;;5027135;28;20036;-63
2022/10/25 12:03:34;;;;;;;7.15;1.52;;;17.80;99.90;;;;;;5029489;28;20473;-63
2022/10/25 12:06:10;;;;;;;1.58;0.50;;;18.10;99.90;;;;;;5022016;28;20021;-63
2022/10/25 12:08:54;;;;;;;3.10;0.80;;;17.90;99.90;;;;;;5024907;28;20091;-63
2022/10/25 12:11:25;;;;;;;4.30;0.80;;;18.00;99.90;;;;;;5024885;28;20053;-63
2022/10/25 12:13:56;;;;;;;4.35;0.95;;;17.90;99.90;;;;;;5031371;28;20071;-61
2022/10/25 12:16:23;;;;;;;4.45;0.63;;;18.00;99.90;;;;;;5029671;28;20024;-64
2022/10/25 12:18:55;;;;;;;5.63;0.65;;;17.90;99.90;;;;;;5027928;28;20500;-63
2022/10/25 12:21:29;;;;;;;3.63;0.80;;;17.80;99.90;;;;;;5032435;28;20030;-64
2022/10/25 12:23:55;;;;;;;4.18;1.33;;;17.70;99.90;;;;;;5027185;28;20022;-63
2022/10/25 12:26:32;;;;;;;7.13;0.60;;;17.70;99.90;;;;;;5028123;28;20063;-64
2022/10/25 12:29:01;;;;;;;3.22;1.00;;;17.70;99.90;;;;;;5021311;28;20069;-64
2022/10/25 12:31:30;;;;;;;4.88;1.02;;;17.70;99.90;;;;;;5032909;28;20112;-63
2022/10/25 12:34:02;;;;;;;3.92;1.00;;;17.70;99.90;;;;;;5028768;28;20330;-64
2022/10/25 12:36:35;;;;;;;2.55;0.93;;;17.70;99.90;;;;;;5026964;28;20021;-64
2022/10/25 12:39:05;;;;;;;6.85;1.20;;;17.70;99.90;;;;;;5024623;28;20033;-63
2022/10/25 12:41:36;;;;;;;2.88;0.95;;;17.80;99.90;;;;;;5029065;28;20036;-63
2022/10/25 12:44:13;;;;;;;1.75;0.60;;;17.70;99.90;;;;;;5036744;28;20112;-63
2022/10/25 12:47:00;;;;;;;5.88;0.82;;;17.70;99.90;;;;;;5026569;28;20037;-63
2022/10/25 12:49:49;;;;;;;4.28;0.90;;;17.60;99.90;;;;;;5031969;28;20021;-63
2022/10/25 12:52:38;;;;;;;4.40;1.33;;;17.50;99.90;;;;;;5035827;28;20043;-63
2022/10/25 12:55:19;;;;;;;2.35;1.00;;;17.40;99.90;;;;;;5025718;28;20037;-63
2022/10/25 12:58:06;;;;;;;3.22;0.75;;;17.30;99.90;;;;;;5040479;28;20033;-64
2022/10/25 13:00:55;;;;;;;2.45;0.80;;;17.40;99.90;;;;;;5035513;28;20026;-63
2022/10/25 13:03:37;;;;;;;5.85;1.15;;;17.30;99.90;;;;;;5032007;28;20467;-63
2022/10/25 13:06:18;;;;;;;4.03;0.80;;;17.10;99.90;;;;;;5031863;28;20026;-63
2022/10/25 13:08:44;;;;;;;3.13;0.70;;;17.00;99.90;;;;;;5025333;28;20108;-63
2022/10/25 13:11:10;;;;;;;3.35;0.80;;;17.10;99.90;;;;;;5034949;28;20104;-63